Blountstown, Florida
Current Conditions -  °F | °C
As of 1:53 PM on Thursday 23 Oct 2014 (Local Time) from KMAI Reporting Station
Clear Clear  
Wind Chill: 23°   Ceiling: Unl
Heat Index: 23°   Visibility: 10mi
Dew Point:   Wind: 10mph
Humidity: 32%   Direction: 50°NE
Pressure: 30.03"   Gusts: NA
Location:  30.44°N, 85.05°W
Report Text: KMAI 231853Z AUTO 05009KT 10SM CLR 23/06 A3003 RMK AO2 SLP167 T02330056 $
Loading
Personal Weather Stations






























Interactive Weather Map
Tropical Storm Tracking
New forecast layout! Learn more

10-Day Weather Forecast

Advertisements
Track Severe Weather on mobile